sensor_id;sensor_type;location;lat;lon;timestamp;P1;durP1;ratioP1;P2;durP2;ratioP2
76136;SDS011;68622;53.128;17.966;2023-05-07T00:00:58;21.70;;;12.30;;
76136;SDS011;68622;53.128;17.966;2023-05-07T00:03:25;22.50;;;10.90;;
76136;SDS011;68622;53.128;17.966;2023-05-07T00:05:51;23.30;;;11.70;;
76136;SDS011;68622;53.128;17.966;2023-05-07T00:08:18;25.70;;;12.60;;
76136;SDS011;68622;53.128;17.966;2023-05-07T00:10:45;21.70;;;10.80;;
76136;SDS011;68622;53.128;17.966;2023-05-07T00:13:12;23.50;;;11.80;;
76136;SDS011;68622;53.128;17.966;2023-05-07T00:15:37;23.20;;;10.90;;
76136;SDS011;68622;53.128;17.966;2023-05-07T00:18:05;22.20;;;12.30;;
76136;SDS011;68622;53.128;17.966;2023-05-07T00:20:31;24.20;;;12.90;;
76136;SDS011;68622;53.128;17.966;2023-05-07T00:22:57;21.00;;;11.70;;
76136;SDS011;68622;53.128;17.966;2023-05-07T00:25:23;22.90;;;11.20;;
76136;SDS011;68622;53.128;17.966;2023-05-07T00:27:49;23.50;;;12.20;;
76136;SDS011;68622;53.128;17.966;2023-05-07T00:30:15;24.60;;;12.90;;
76136;SDS011;68622;53.128;17.966;2023-05-07T00:32:41;23.60;;;12.80;;
76136;SDS011;68622;53.128;17.966;2023-05-07T00:35:07;29.40;;;14.20;;
76136;SDS011;68622;53.128;17.966;2023-05-07T00:37:34;25.60;;;13.40;;
76136;SDS011;68622;53.128;17.966;2023-05-07T00:40:00;22.90;;;11.80;;
76136;SDS011;68622;53.128;17.966;2023-05-07T00:42:26;22.70;;;12.20;;
76136;SDS011;68622;53.128;17.966;2023-05-07T00:44:54;23.60;;;12.30;;
76136;SDS011;68622;53.128;17.966;2023-05-07T00:47:20;24.70;;;12.60;;
76136;SDS011;68622;53.128;17.966;2023-05-07T00:49:46;21.70;;;11.80;;
76136;SDS011;68622;53.128;17.966;2023-05-07T00:52:14;22.40;;;11.60;;
76136;SDS011;68622;53.128;17.966;2023-05-07T00:54:42;21.80;;;11.00;;
76136;SDS011;68622;53.128;17.966;2023-05-07T00:57:09;23.80;;;12.40;;
76136;SDS011;68622;53.128;17.966;2023-05-07T00:59:37;24.30;;;12.10;;
76136;SDS011;68622;53.128;17.966;2023-05-07T01:02:03;22.70;;;12.40;;
76136;SDS011;68622;53.128;17.966;2023-05-07T01:04:29;20.10;;;11.60;;
76136;SDS011;68622;53.128;17.966;2023-05-07T01:06:55;24.10;;;12.90;;
76136;SDS011;68622;53.128;17.966;2023-05-07T01:09:24;22.20;;;11.90;;
76136;SDS011;68622;53.128;17.966;2023-05-07T01:11:51;22.60;;;12.00;;
76136;SDS011;68622;53.128;17.966;2023-05-07T01:14:18;23.40;;;12.40;;
76136;SDS011;68622;53.128;17.966;2023-05-07T01:16:46;22.00;;;11.50;;
76136;SDS011;68622;53.128;17.966;2023-05-07T01:19:13;19.90;;;11.00;;
76136;SDS011;68622;53.128;17.966;2023-05-07T01:21:46;20.60;;;11.20;;
76136;SDS011;68622;53.128;17.966;2023-05-07T01:24:15;23.90;;;11.50;;
76136;SDS011;68622;53.128;17.966;2023-05-07T01:26:42;21.70;;;11.70;;
76136;SDS011;68622;53.128;17.966;2023-05-07T01:29:09;22.90;;;11.10;;
76136;SDS011;68622;53.128;17.966;2023-05-07T01:31:36;20.90;;;11.10;;
76136;SDS011;68622;53.128;17.966;2023-05-07T01:34:03;20.80;;;11.00;;
76136;SDS011;68622;53.128;17.966;2023-05-07T01:36:30;18.20;;;11.10;;
76136;SDS011;68622;53.128;17.966;2023-05-07T01:38:58;25.00;;;11.90;;
76136;SDS011;68622;53.128;17.966;2023-05-07T01:41:25;23.10;;;11.70;;
76136;SDS011;68622;53.128;17.966;2023-05-07T01:43:51;27.40;;;12.70;;
76136;SDS011;68622;53.128;17.966;2023-05-07T01:46:18;23.00;;;12.00;;
76136;SDS011;68622;53.128;17.966;2023-05-07T01:48:45;26.60;;;12.80;;
76136;SDS011;68622;53.128;17.966;2023-05-07T01:51:11;28.70;;;11.10;;
76136;SDS011;68622;53.128;17.966;2023-05-07T01:53:38;27.40;;;11.90;;
76136;SDS011;68622;53.128;17.966;2023-05-07T01:56:07;29.20;;;12.40;;
76136;SDS011;68622;53.128;17.966;2023-05-07T01:58:33;30.60;;;12.90;;
76136;SDS011;68622;53.128;17.966;2023-05-07T02:01:01;26.80;;;13.20;;
76136;SDS011;68622;53.128;17.966;2023-05-07T02:03:27;32.20;;;14.40;;
76136;SDS011;68622;53.128;17.966;2023-05-07T02:05:58;25.90;;;12.50;;
76136;SDS011;68622;53.128;17.966;2023-05-07T02:08:36;29.20;;;13.30;;
76136;SDS011;68622;53.128;17.966;2023-05-07T02:11:02;32.60;;;13.40;;
76136;SDS011;68622;53.128;17.966;2023-05-07T02:13:29;28.10;;;13.60;;
76136;SDS011;68622;53.128;17.966;2023-05-07T02:15:58;30.50;;;14.30;;
76136;SDS011;68622;53.128;17.966;2023-05-07T02:18:24;29.60;;;14.30;;
76136;SDS011;68622;53.128;17.966;2023-05-07T02:20:50;28.80;;;14.60;;
76136;SDS011;68622;53.128;17.966;2023-05-07T02:23:16;32.00;;;14.10;;
76136;SDS011;68622;53.128;17.966;2023-05-07T02:25:42;29.80;;;13.60;;
76136;SDS011;68622;53.128;17.966;2023-05-07T02:28:08;31.20;;;14.60;;
76136;SDS011;68622;53.128;17.966;2023-05-07T02:30:44;31.80;;;13.80;;
76136;SDS011;68622;53.128;17.966;2023-05-07T02:33:10;28.70;;;13.20;;
76136;SDS011;68622;53.128;17.966;2023-05-07T02:35:38;27.10;;;13.70;;
76136;SDS011;68622;53.128;17.966;2023-05-07T02:38:04;31.30;;;13.40;;
76136;SDS011;68622;53.128;17.966;2023-05-07T02:40:30;29.00;;;12.50;;
76136;SDS011;68622;53.128;17.966;2023-05-07T02:42:59;28.10;;;12.90;;
76136;SDS011;68622;53.128;17.966;2023-05-07T02:45:25;23.90;;;12.10;;
76136;SDS011;68622;53.128;17.966;2023-05-07T02:47:52;30.50;;;13.10;;
76136;SDS011;68622;53.128;17.966;2023-05-07T02:50:19;23.80;;;12.60;;
76136;SDS011;68622;53.128;17.966;2023-05-07T02:52:45;26.50;;;12.70;;
76136;SDS011;68622;53.128;17.966;2023-05-07T02:55:11;25.50;;;13.00;;
76136;SDS011;68622;53.128;17.966;2023-05-07T02:57:37;24.10;;;12.40;;
76136;SDS011;68622;53.128;17.966;2023-05-07T03:00:10;29.90;;;13.40;;
76136;SDS011;68622;53.128;17.966;2023-05-07T03:02:41;26.20;;;13.40;;
76136;SDS011;68622;53.128;17.966;2023-05-07T03:05:08;28.40;;;12.90;;
76136;SDS011;68622;53.128;17.966;2023-05-07T03:07:35;26.10;;;12.00;;
76136;SDS011;68622;53.128;17.966;2023-05-07T03:10:01;24.80;;;12.10;;
76136;SDS011;68622;53.128;17.966;2023-05-07T03:12:28;28.40;;;13.50;;
76136;SDS011;68622;53.128;17.966;2023-05-07T03:14:54;26.80;;;11.90;;
76136;SDS011;68622;53.128;17.966;2023-05-07T03:17:20;27.50;;;12.90;;
76136;SDS011;68622;53.128;17.966;2023-05-07T03:19:46;25.20;;;12.40;;
76136;SDS011;68622;53.128;17.966;2023-05-07T03:22:13;22.10;;;10.90;;
76136;SDS011;68622;53.128;17.966;2023-05-07T03:24:40;19.60;;;10.90;;
76136;SDS011;68622;53.128;17.966;2023-05-07T03:27:05;22.00;;;12.20;;
76136;SDS011;68622;53.128;17.966;2023-05-07T03:29:32;23.20;;;12.50;;
76136;SDS011;68622;53.128;17.966;2023-05-07T03:31:57;21.30;;;11.20;;
76136;SDS011;68622;53.128;17.966;2023-05-07T03:34:23;22.20;;;11.90;;
76136;SDS011;68622;53.128;17.966;2023-05-07T03:36:50;25.80;;;12.40;;
76136;SDS011;68622;53.128;17.966;2023-05-07T03:39:16;22.50;;;12.40;;
76136;SDS011;68622;53.128;17.966;2023-05-07T03:41:42;22.50;;;12.10;;
76136;SDS011;68622;53.128;17.966;2023-05-07T03:44:08;18.40;;;10.70;;
76136;SDS011;68622;53.128;17.966;2023-05-07T03:46:34;20.90;;;12.30;;
76136;SDS011;68622;53.128;17.966;2023-05-07T03:49:00;22.50;;;13.10;;
76136;SDS011;68622;53.128;17.966;2023-05-07T03:51:27;23.40;;;13.60;;
76136;SDS011;68622;53.128;17.966;2023-05-07T03:53:53;29.60;;;16.60;;
76136;SDS011;68622;53.128;17.966;2023-05-07T03:56:19;31.30;;;16.60;;
76136;SDS011;68622;53.128;17.966;2023-05-07T03:58:47;25.80;;;16.90;;
76136;SDS011;68622;53.128;17.966;2023-05-07T04:01:13;30.90;;;17.20;;
76136;SDS011;68622;53.128;17.966;2023-05-07T04:03:39;30.90;;;19.30;;
76136;SDS011;68622;53.128;17.966;2023-05-07T04:06:05;32.60;;;18.90;;
76136;SDS011;68622;53.128;17.966;2023-05-07T04:08:33;30.90;;;18.40;;
76136;SDS011;68622;53.128;17.966;2023-05-07T04:10:59;32.60;;;18.90;;
76136;SDS011;68622;53.128;17.966;2023-05-07T04:13:29;32.70;;;17.60;;
76136;SDS011;68622;53.128;17.966;2023-05-07T04:15:56;32.40;;;17.50;;
76136;SDS011;68622;53.128;17.966;2023-05-07T04:18:23;30.60;;;17.00;;
76136;SDS011;68622;53.128;17.966;2023-05-07T04:20:49;31.90;;;17.70;;
76136;SDS011;68622;53.128;17.966;2023-05-07T04:23:15;30.00;;;18.70;;
76136;SDS011;68622;53.128;17.966;2023-05-07T04:25:42;34.50;;;17.70;;
76136;SDS011;68622;53.128;17.966;2023-05-07T04:28:21;32.50;;;19.10;;
76136;SDS011;68622;53.128;17.966;2023-05-07T04:30:47;32.10;;;19.80;;
76136;SDS011;68622;53.128;17.966;2023-05-07T04:33:14;32.00;;;19.60;;
76136;SDS011;68622;53.128;17.966;2023-05-07T04:35:42;29.30;;;18.70;;
76136;SDS011;68622;53.128;17.966;2023-05-07T04:38:08;31.10;;;17.70;;
76136;SDS011;68622;53.128;17.966;2023-05-07T04:40:35;28.80;;;16.60;;
76136;SDS011;68622;53.128;17.966;2023-05-07T04:43:02;28.30;;;16.10;;
76136;SDS011;68622;53.128;17.966;2023-05-07T04:45:30;30.10;;;17.20;;
76136;SDS011;68622;53.128;17.966;2023-05-07T04:47:56;26.50;;;16.80;;
76136;SDS011;68622;53.128;17.966;2023-05-07T04:50:22;32.70;;;18.70;;
76136;SDS011;68622;53.128;17.966;2023-05-07T04:52:50;27.60;;;16.50;;
76136;SDS011;68622;53.128;17.966;2023-05-07T04:55:17;25.50;;;16.20;;
76136;SDS011;68622;53.128;17.966;2023-05-07T04:57:43;25.60;;;13.70;;
76136;SDS011;68622;53.128;17.966;2023-05-07T05:00:11;24.90;;;14.00;;
76136;SDS011;68622;53.128;17.966;2023-05-07T05:02:41;24.30;;;14.40;;
76136;SDS011;68622;53.128;17.966;2023-05-07T05:05:07;22.60;;;13.30;;
76136;SDS011;68622;53.128;17.966;2023-05-07T05:07:34;23.70;;;13.20;;
76136;SDS011;68622;53.128;17.966;2023-05-07T05:10:01;23.90;;;13.60;;
76136;SDS011;68622;53.128;17.966;2023-05-07T05:12:30;25.30;;;14.60;;
76136;SDS011;68622;53.128;17.966;2023-05-07T05:14:57;25.30;;;13.60;;
76136;SDS011;68622;53.128;17.966;2023-05-07T05:17:23;25.90;;;14.50;;
76136;SDS011;68622;53.128;17.966;2023-05-07T05:19:49;20.40;;;12.50;;
76136;SDS011;68622;53.128;17.966;2023-05-07T05:22:15;25.40;;;13.50;;
76136;SDS011;68622;53.128;17.966;2023-05-07T05:24:41;22.20;;;12.70;;
76136;SDS011;68622;53.128;17.966;2023-05-07T05:27:07;23.10;;;12.80;;
76136;SDS011;68622;53.128;17.966;2023-05-07T05:29:34;20.70;;;11.90;;
76136;SDS011;68622;53.128;17.966;2023-05-07T05:32:00;23.00;;;12.60;;
76136;SDS011;68622;53.128;17.966;2023-05-07T05:34:27;18.60;;;11.00;;
76136;SDS011;68622;53.128;17.966;2023-05-07T05:36:54;18.60;;;11.10;;
76136;SDS011;68622;53.128;17.966;2023-05-07T05:39:20;19.30;;;11.40;;
76136;SDS011;68622;53.128;17.966;2023-05-07T05:41:47;20.90;;;10.90;;
76136;SDS011;68622;53.128;17.966;2023-05-07T05:44:13;19.10;;;11.00;;
76136;SDS011;68622;53.128;17.966;2023-05-07T05:46:40;23.90;;;11.90;;
76136;SDS011;68622;53.128;17.966;2023-05-07T05:49:06;22.90;;;12.60;;
76136;SDS011;68622;53.128;17.966;2023-05-07T05:51:32;16.10;;;10.60;;
76136;SDS011;68622;53.128;17.966;2023-05-07T05:53:59;17.30;;;9.70;;
76136;SDS011;68622;53.128;17.966;2023-05-07T05:56:25;20.30;;;10.30;;
76136;SDS011;68622;53.128;17.966;2023-05-07T05:58:51;18.20;;;9.80;;
76136;SDS011;68622;53.128;17.966;2023-05-07T06:01:18;20.00;;;10.40;;
76136;SDS011;68622;53.128;17.966;2023-05-07T06:03:45;16.00;;;9.70;;
76136;SDS011;68622;53.128;17.966;2023-05-07T06:06:13;18.50;;;9.50;;
76136;SDS011;68622;53.128;17.966;2023-05-07T06:08:41;16.20;;;9.30;;
76136;SDS011;68622;53.128;17.966;2023-05-07T06:11:08;16.60;;;9.60;;
76136;SDS011;68622;53.128;17.966;2023-05-07T06:13:36;19.50;;;10.10;;
76136;SDS011;68622;53.128;17.966;2023-05-07T06:16:02;19.00;;;9.60;;
76136;SDS011;68622;53.128;17.966;2023-05-07T06:18:28;16.00;;;8.00;;
76136;SDS011;68622;53.128;17.966;2023-05-07T06:20:55;16.00;;;8.90;;
76136;SDS011;68622;53.128;17.966;2023-05-07T06:23:28;16.60;;;8.60;;
76136;SDS011;68622;53.128;17.966;2023-05-07T06:25:54;23.40;;;16.50;;
76136;SDS011;68622;53.128;17.966;2023-05-07T06:28:23;14.60;;;8.20;;
76136;SDS011;68622;53.128;17.966;2023-05-07T06:30:49;14.70;;;8.40;;
76136;SDS011;68622;53.128;17.966;2023-05-07T06:33:16;14.30;;;7.60;;
76136;SDS011;68622;53.128;17.966;2023-05-07T06:35:42;13.30;;;6.90;;
76136;SDS011;68622;53.128;17.966;2023-05-07T06:38:08;14.40;;;6.90;;
76136;SDS011;68622;53.128;17.966;2023-05-07T06:40:34;13.10;;;6.40;;
76136;SDS011;68622;53.128;17.966;2023-05-07T06:43:00;12.50;;;6.50;;
76136;SDS011;68622;53.128;17.966;2023-05-07T06:45:35;12.20;;;6.20;;
76136;SDS011;68622;53.128;17.966;2023-05-07T06:48:02;13.70;;;5.90;;
76136;SDS011;68622;53.128;17.966;2023-05-07T06:50:30;10.10;;;5.10;;
76136;SDS011;68622;53.128;17.966;2023-05-07T06:52:56;21.80;;;5.60;;
76136;SDS011;68622;53.128;17.966;2023-05-07T06:55:22;10.10;;;5.00;;
76136;SDS011;68622;53.128;17.966;2023-05-07T06:57:48;9.80;;;5.20;;
76136;SDS011;68622;53.128;17.966;2023-05-07T07:00:14;13.10;;;5.70;;
76136;SDS011;68622;53.128;17.966;2023-05-07T07:02:48;15.80;;;7.70;;
76136;SDS011;68622;53.128;17.966;2023-05-07T07:05:14;12.50;;;5.80;;
76136;SDS011;68622;53.128;17.966;2023-05-07T07:07:40;11.40;;;5.30;;
76136;SDS011;68622;53.128;17.966;2023-05-07T07:10:07;11.20;;;5.70;;
76136;SDS011;68622;53.128;17.966;2023-05-07T07:12:34;11.20;;;5.00;;
76136;SDS011;68622;53.128;17.966;2023-05-07T07:15:00;13.20;;;6.60;;
76136;SDS011;68622;53.128;17.966;2023-05-07T07:17:26;13.50;;;6.00;;
76136;SDS011;68622;53.128;17.966;2023-05-07T07:19:55;12.50;;;5.60;;
76136;SDS011;68622;53.128;17.966;2023-05-07T07:22:21;11.40;;;5.60;;
76136;SDS011;68622;53.128;17.966;2023-05-07T07:24:47;11.80;;;5.90;;
76136;SDS011;68622;53.128;17.966;2023-05-07T07:27:14;12.80;;;5.30;;
76136;SDS011;68622;53.128;17.966;2023-05-07T07:29:40;15.20;;;5.90;;
76136;SDS011;68622;53.128;17.966;2023-05-07T07:32:06;12.60;;;5.20;;
76136;SDS011;68622;53.128;17.966;2023-05-07T07:34:32;11.50;;;5.40;;
76136;SDS011;68622;53.128;17.966;2023-05-07T07:37:00;11.10;;;5.40;;
76136;SDS011;68622;53.128;17.966;2023-05-07T07:39:31;11.90;;;5.60;;
76136;SDS011;68622;53.128;17.966;2023-05-07T07:41:58;10.90;;;4.50;;
76136;SDS011;68622;53.128;17.966;2023-05-07T07:44:27;14.50;;;5.20;;
76136;SDS011;68622;53.128;17.966;2023-05-07T07:46:57;11.20;;;5.20;;
76136;SDS011;68622;53.128;17.966;2023-05-07T07:49:23;11.90;;;5.20;;
76136;SDS011;68622;53.128;17.966;2023-05-07T07:51:49;12.10;;;5.70;;
76136;SDS011;68622;53.128;17.966;2023-05-07T07:54:16;13.40;;;5.60;;
76136;SDS011;68622;53.128;17.966;2023-05-07T07:56:43;11.90;;;5.00;;
76136;SDS011;68622;53.128;17.966;2023-05-07T07:59:09;9.20;;;4.60;;
76136;SDS011;68622;53.128;17.966;2023-05-07T08:01:37;10.10;;;4.40;;
76136;SDS011;68622;53.128;17.966;2023-05-07T08:04:04;11.40;;;6.20;;
76136;SDS011;68622;53.128;17.966;2023-05-07T08:06:32;9.10;;;4.40;;
76136;SDS011;68622;53.128;17.966;2023-05-07T08:08:58;8.40;;;3.40;;
76136;SDS011;68622;53.128;17.966;2023-05-07T08:11:25;8.80;;;3.30;;
76136;SDS011;68622;53.128;17.966;2023-05-07T08:13:51;10.30;;;3.60;;
76136;SDS011;68622;53.128;17.966;2023-05-07T08:16:18;10.10;;;5.60;;
76136;SDS011;68622;53.128;17.966;2023-05-07T08:18:45;13.30;;;5.80;;
76136;SDS011;68622;53.128;17.966;2023-05-07T08:21:11;12.70;;;3.60;;
76136;SDS011;68622;53.128;17.966;2023-05-07T08:23:37;9.20;;;4.80;;
76136;SDS011;68622;53.128;17.966;2023-05-07T08:26:05;7.20;;;3.00;;
76136;SDS011;68622;53.128;17.966;2023-05-07T08:28:33;6.70;;;2.90;;
76136;SDS011;68622;53.128;17.966;2023-05-07T08:30:59;8.30;;;3.10;;
76136;SDS011;68622;53.128;17.966;2023-05-07T08:33:28;8.90;;;3.60;;
76136;SDS011;68622;53.128;17.966;2023-05-07T08:35:54;7.60;;;3.00;;
76136;SDS011;68622;53.128;17.966;2023-05-07T08:38:20;7.30;;;2.90;;
76136;SDS011;68622;53.128;17.966;2023-05-07T08:40:46;11.70;;;4.70;;
76136;SDS011;68622;53.128;17.966;2023-05-07T08:43:16;8.40;;;2.80;;
76136;SDS011;68622;53.128;17.966;2023-05-07T08:45:45;10.70;;;3.00;;
76136;SDS011;68622;53.128;17.966;2023-05-07T08:48:16;6.60;;;2.40;;
76136;SDS011;68622;53.128;17.966;2023-05-07T08:50:46;6.20;;;2.10;;
76136;SDS011;68622;53.128;17.966;2023-05-07T08:53:12;7.50;;;2.60;;
76136;SDS011;68622;53.128;17.966;2023-05-07T08:55:39;6.80;;;2.20;;
76136;SDS011;68622;53.128;17.966;2023-05-07T08:58:05;7.50;;;2.50;;
76136;SDS011;68622;53.128;17.966;2023-05-07T09:00:33;6.60;;;2.30;;
76136;SDS011;68622;53.128;17.966;2023-05-07T09:03:00;8.10;;;2.40;;
76136;SDS011;68622;53.128;17.966;2023-05-07T09:05:27;10.60;;;5.70;;
76136;SDS011;68622;53.128;17.966;2023-05-07T09:07:53;8.20;;;3.10;;
76136;SDS011;68622;53.128;17.966;2023-05-07T09:10:21;7.10;;;2.30;;
76136;SDS011;68622;53.128;17.966;2023-05-07T09:12:47;7.30;;;2.70;;
76136;SDS011;68622;53.128;17.966;2023-05-07T09:15:14;7.60;;;4.00;;
76136;SDS011;68622;53.128;17.966;2023-05-07T09:17:42;6.90;;;2.80;;
76136;SDS011;68622;53.128;17.966;2023-05-07T09:20:09;7.50;;;3.60;;
76136;SDS011;68622;53.128;17.966;2023-05-07T09:22:36;8.40;;;2.90;;
76136;SDS011;68622;53.128;17.966;2023-05-07T09:25:07;6.90;;;2.70;;
76136;SDS011;68622;53.128;17.966;2023-05-07T09:27:38;8.00;;;2.30;;
76136;SDS011;68622;53.128;17.966;2023-05-07T09:30:04;7.20;;;2.60;;
76136;SDS011;68622;53.128;17.966;2023-05-07T09:32:36;6.20;;;2.20;;
76136;SDS011;68622;53.128;17.966;2023-05-07T09:35:16;6.50;;;2.30;;
76136;SDS011;68622;53.128;17.966;2023-05-07T09:37:47;6.70;;;2.20;;
76136;SDS011;68622;53.128;17.966;2023-05-07T09:40:24;9.70;;;2.50;;
76136;SDS011;68622;53.128;17.966;2023-05-07T09:42:53;6.50;;;2.80;;
76136;SDS011;68622;53.128;17.966;2023-05-07T09:45:26;7.90;;;2.50;;
76136;SDS011;68622;53.128;17.966;2023-05-07T09:47:54;8.10;;;2.60;;
76136;SDS011;68622;53.128;17.966;2023-05-07T09:50:26;6.90;;;2.50;;
76136;SDS011;68622;53.128;17.966;2023-05-07T09:52:55;7.20;;;2.30;;
76136;SDS011;68622;53.128;17.966;2023-05-07T09:55:22;6.70;;;2.60;;
76136;SDS011;68622;53.128;17.966;2023-05-07T09:57:52;11.40;;;4.60;;
76136;SDS011;68622;53.128;17.966;2023-05-07T10:00:20;18.10;;;8.10;;
76136;SDS011;68622;53.128;17.966;2023-05-07T10:02:48;8.60;;;3.20;;
76136;SDS011;68622;53.128;17.966;2023-05-07T10:05:19;13.10;;;5.30;;
76136;SDS011;68622;53.128;17.966;2023-05-07T10:07:48;8.00;;;2.90;;
76136;SDS011;68622;53.128;17.966;2023-05-07T10:10:16;7.60;;;3.40;;
76136;SDS011;68622;53.128;17.966;2023-05-07T10:12:43;8.30;;;3.30;;
76136;SDS011;68622;53.128;17.966;2023-05-07T10:15:16;6.90;;;2.70;;
76136;SDS011;68622;53.128;17.966;2023-05-07T10:17:45;8.40;;;3.30;;
76136;SDS011;68622;53.128;17.966;2023-05-07T10:20:14;11.40;;;5.90;;
76136;SDS011;68622;53.128;17.966;2023-05-07T10:22:41;9.70;;;3.50;;
76136;SDS011;68622;53.128;17.966;2023-05-07T10:25:44;6.90;;;3.10;;
76136;SDS011;68622;53.128;17.966;2023-05-07T10:28:07;8.80;;;3.60;;
76136;SDS011;68622;53.128;17.966;2023-05-07T10:30:46;7.30;;;3.20;;
76136;SDS011;68622;53.128;17.966;2023-05-07T10:33:24;7.50;;;2.70;;
76136;SDS011;68622;53.128;17.966;2023-05-07T10:35:55;7.70;;;2.90;;
76136;SDS011;68622;53.128;17.966;2023-05-07T10:38:26;7.10;;;2.80;;
76136;SDS011;68622;53.128;17.966;2023-05-07T10:40:53;10.40;;;2.70;;
76136;SDS011;68622;53.128;17.966;2023-05-07T10:43:20;21.10;;;10.60;;
76136;SDS011;68622;53.128;17.966;2023-05-07T10:46:10;8.90;;;3.40;;
76136;SDS011;68622;53.128;17.966;2023-05-07T10:52:11;8.80;;;3.80;;
76136;SDS011;68622;53.128;17.966;2023-05-07T10:54:47;7.10;;;3.30;;
76136;SDS011;68622;53.128;17.966;2023-05-07T11:01:09;6.10;;;2.50;;
76136;SDS011;68622;53.128;17.966;2023-05-07T11:06:39;10.10;;;2.80;;
76136;SDS011;68622;53.128;17.966;2023-05-07T11:09:07;7.80;;;3.00;;
76136;SDS011;68622;53.128;17.966;2023-05-07T11:11:51;6.70;;;2.90;;
76136;SDS011;68622;53.128;17.966;2023-05-07T11:17:18;7.50;;;2.80;;
76136;SDS011;68622;53.128;17.966;2023-05-07T11:19:49;8.70;;;2.90;;
76136;SDS011;68622;53.128;17.966;2023-05-07T11:25:06;6.10;;;2.70;;
76136;SDS011;68622;53.128;17.966;2023-05-07T11:27:32;6.50;;;2.80;;
76136;SDS011;68622;53.128;17.966;2023-05-07T11:29:59;6.90;;;2.80;;
76136;SDS011;68622;53.128;17.966;2023-05-07T11:32:27;7.40;;;2.70;;
76136;SDS011;68622;53.128;17.966;2023-05-07T11:34:55;7.50;;;2.90;;
76136;SDS011;68622;53.128;17.966;2023-05-07T11:37:24;6.70;;;2.60;;
76136;SDS011;68622;53.128;17.966;2023-05-07T11:40:03;10.80;;;3.20;;
76136;SDS011;68622;53.128;17.966;2023-05-07T11:42:35;8.10;;;2.60;;
76136;SDS011;68622;53.128;17.966;2023-05-07T11:45:03;8.30;;;2.80;;
76136;SDS011;68622;53.128;17.966;2023-05-07T11:47:30;6.70;;;2.90;;
76136;SDS011;68622;53.128;17.966;2023-05-07T11:49:56;7.40;;;2.60;;
76136;SDS011;68622;53.128;17.966;2023-05-07T11:52:27;8.10;;;2.80;;
76136;SDS011;68622;53.128;17.966;2023-05-07T11:54:54;7.50;;;2.50;;
76136;SDS011;68622;53.128;17.966;2023-05-07T11:57:21;8.00;;;2.90;;
76136;SDS011;68622;53.128;17.966;2023-05-07T11:59:52;7.80;;;3.70;;
76136;SDS011;68622;53.128;17.966;2023-05-07T12:02:19;6.10;;;2.60;;
76136;SDS011;68622;53.128;17.966;2023-05-07T12:04:45;8.40;;;3.00;;
76136;SDS011;68622;53.128;17.966;2023-05-07T12:07:11;6.60;;;2.80;;
76136;SDS011;68622;53.128;17.966;2023-05-07T12:09:39;7.10;;;2.40;;
76136;SDS011;68622;53.128;17.966;2023-05-07T12:12:06;7.20;;;2.80;;
76136;SDS011;68622;53.128;17.966;2023-05-07T12:14:32;7.30;;;2.80;;
76136;SDS011;68622;53.128;17.966;2023-05-07T12:17:01;7.60;;;3.10;;
76136;SDS011;68622;53.128;17.966;2023-05-07T12:19:29;6.50;;;2.70;;
76136;SDS011;68622;53.128;17.966;2023-05-07T12:21:56;7.60;;;2.70;;
76136;SDS011;68622;53.128;17.966;2023-05-07T12:24:23;8.10;;;2.10;;
76136;SDS011;68622;53.128;17.966;2023-05-07T12:26:48;6.00;;;2.60;;
76136;SDS011;68622;53.128;17.966;2023-05-07T12:29:15;9.10;;;2.30;;
76136;SDS011;68622;53.128;17.966;2023-05-07T12:31:41;5.90;;;2.30;;
76136;SDS011;68622;53.128;17.966;2023-05-07T12:34:08;6.80;;;2.00;;
76136;SDS011;68622;53.128;17.966;2023-05-07T12:36:36;7.00;;;3.00;;
76136;SDS011;68622;53.128;17.966;2023-05-07T12:39:04;6.20;;;2.60;;
76136;SDS011;68622;53.128;17.966;2023-05-07T12:41:35;7.00;;;2.50;;
76136;SDS011;68622;53.128;17.966;2023-05-07T12:44:03;5.50;;;2.40;;
76136;SDS011;68622;53.128;17.966;2023-05-07T12:46:30;5.50;;;2.30;;
76136;SDS011;68622;53.128;17.966;2023-05-07T12:48:56;8.60;;;2.50;;
76136;SDS011;68622;53.128;17.966;2023-05-07T12:51:22;6.90;;;2.30;;
76136;SDS011;68622;53.128;17.966;2023-05-07T12:53:48;9.30;;;2.60;;
76136;SDS011;68622;53.128;17.966;2023-05-07T12:56:15;7.20;;;2.30;;
76136;SDS011;68622;53.128;17.966;2023-05-07T12:58:41;6.80;;;2.50;;
76136;SDS011;68622;53.128;17.966;2023-05-07T13:01:07;7.90;;;2.60;;
76136;SDS011;68622;53.128;17.966;2023-05-07T13:03:36;6.00;;;2.00;;
76136;SDS011;68622;53.128;17.966;2023-05-07T13:06:04;6.80;;;2.50;;
76136;SDS011;68622;53.128;17.966;2023-05-07T13:08:41;9.50;;;2.30;;
76136;SDS011;68622;53.128;17.966;2023-05-07T13:11:11;6.60;;;2.10;;
76136;SDS011;68622;53.128;17.966;2023-05-07T13:13:38;6.80;;;2.30;;
76136;SDS011;68622;53.128;17.966;2023-05-07T13:16:06;6.50;;;2.00;;
76136;SDS011;68622;53.128;17.966;2023-05-07T13:18:34;4.90;;;2.00;;
76136;SDS011;68622;53.128;17.966;2023-05-07T13:21:00;6.60;;;2.00;;
76136;SDS011;68622;53.128;17.966;2023-05-07T13:23:27;5.50;;;2.00;;
76136;SDS011;68622;53.128;17.966;2023-05-07T13:25:56;6.90;;;2.20;;
76136;SDS011;68622;53.128;17.966;2023-05-07T13:28:23;5.80;;;2.20;;
76136;SDS011;68622;53.128;17.966;2023-05-07T13:30:50;6.00;;;2.20;;
76136;SDS011;68622;53.128;17.966;2023-05-07T13:33:17;6.20;;;2.20;;
76136;SDS011;68622;53.128;17.966;2023-05-07T13:35:45;6.10;;;2.50;;
76136;SDS011;68622;53.128;17.966;2023-05-07T13:38:11;6.10;;;2.20;;
76136;SDS011;68622;53.128;17.966;2023-05-07T13:40:39;5.40;;;2.10;;
76136;SDS011;68622;53.128;17.966;2023-05-07T13:43:06;5.70;;;2.00;;
76136;SDS011;68622;53.128;17.966;2023-05-07T13:45:33;5.80;;;2.10;;
76136;SDS011;68622;53.128;17.966;2023-05-07T13:47:59;6.90;;;2.10;;
76136;SDS011;68622;53.128;17.966;2023-05-07T13:50:25;6.50;;;1.90;;
76136;SDS011;68622;53.128;17.966;2023-05-07T13:52:53;7.70;;;2.80;;
76136;SDS011;68622;53.128;17.966;2023-05-07T13:55:24;5.50;;;2.30;;
76136;SDS011;68622;53.128;17.966;2023-05-07T13:57:57;7.80;;;2.20;;
76136;SDS011;68622;53.128;17.966;2023-05-07T14:00:24;5.70;;;2.10;;
76136;SDS011;68622;53.128;17.966;2023-05-07T14:02:52;6.00;;;2.10;;
76136;SDS011;68622;53.128;17.966;2023-05-07T14:05:18;6.20;;;2.50;;
76136;SDS011;68622;53.128;17.966;2023-05-07T14:07:45;5.60;;;2.60;;
76136;SDS011;68622;53.128;17.966;2023-05-07T14:10:12;8.30;;;2.40;;
76136;SDS011;68622;53.128;17.966;2023-05-07T14:12:38;5.90;;;2.10;;
76136;SDS011;68622;53.128;17.966;2023-05-07T14:15:04;6.90;;;2.00;;
76136;SDS011;68622;53.128;17.966;2023-05-07T14:17:30;6.10;;;1.90;;
76136;SDS011;68622;53.128;17.966;2023-05-07T14:19:56;5.70;;;2.30;;
76136;SDS011;68622;53.128;17.966;2023-05-07T14:22:23;5.10;;;2.10;;
76136;SDS011;68622;53.128;17.966;2023-05-07T14:24:49;7.20;;;2.10;;
76136;SDS011;68622;53.128;17.966;2023-05-07T14:27:16;9.40;;;2.30;;
76136;SDS011;68622;53.128;17.966;2023-05-07T14:29:42;6.20;;;2.30;;
76136;SDS011;68622;53.128;17.966;2023-05-07T14:32:08;5.70;;;2.00;;
76136;SDS011;68622;53.128;17.966;2023-05-07T14:34:35;6.30;;;2.40;;
76136;SDS011;68622;53.128;17.966;2023-05-07T14:37:00;5.30;;;2.20;;
76136;SDS011;68622;53.128;17.966;2023-05-07T14:39:27;6.70;;;2.20;;